Airport Name : Brussels South

Other Name : Charleroi

ICAO : EBCI

IATA : CRL

FAA :

Latitude : 50.459197

Longitude : 4.453817

Country : Belgium

Local Date and Time : 24 Nov 2020 10:39

 

TAF (Terminal Aerodrome Forecast)

TAF EBCI 240500Z 2406/2512 19006KT 8000 BKN005 PROB30 TEMPO 2406/2408 4000 BR BKN003 BECMG 2408/2410 BKN020

 

METAR (METeorological Aerodrome Report)

EBCI 240920Z 19007KT CAVOK 08/05 Q1024 NOSIG

EBCI 240850Z 18007KT CAVOK 07/06 Q1024 NOSIG

EBCI 240820Z 17006KT CAVOK 07/05 Q1024 NOSIG

EBCI 240750Z 18007KT CAVOK 07/05 Q1024 NOSIG

EBCI 240720Z 18005KT 9999 FEW010 07/05 Q1024 NOSIG

EBCI 240650Z 20006KT 9999 FEW010 07/05 Q1024 NOSIG

EBCI 240620Z 19007KT 9999 FEW010 07/05 Q1024 NOSIG

EBCI 240550Z 19007KT 160V220 9999 SCT010 07/06 Q1024 NOSIG

To Charter a Jet Click here.